sensor_id;sensor_type;location;lat;lon;timestamp;P1;durP1;ratioP1;P2;durP2;ratioP2
52043;SDS011;38053;53.100;6.078;2023-11-22T00:00:29;14.00;;;9.75;;
52043;SDS011;38053;53.100;6.078;2023-11-22T00:02:54;18.25;;;10.25;;
52043;SDS011;38053;53.100;6.078;2023-11-22T00:05:20;18.38;;;11.00;;
52043;SDS011;38053;53.100;6.078;2023-11-22T00:07:46;17.35;;;10.50;;
52043;SDS011;38053;53.100;6.078;2023-11-22T00:10:12;17.77;;;10.15;;
52043;SDS011;38053;53.100;6.078;2023-11-22T00:12:39;16.42;;;11.00;;
52043;SDS011;38053;53.100;6.078;2023-11-22T00:15:05;16.02;;;9.93;;
52043;SDS011;38053;53.100;6.078;2023-11-22T00:17:32;17.35;;;11.85;;
52043;SDS011;38053;53.100;6.078;2023-11-22T00:19:58;17.48;;;11.30;;
52043;SDS011;38053;53.100;6.078;2023-11-22T00:22:27;22.48;;;13.13;;
52043;SDS011;38053;53.100;6.078;2023-11-22T00:24:53;21.75;;;12.43;;
52043;SDS011;38053;53.100;6.078;2023-11-22T00:27:19;18.88;;;12.57;;
52043;SDS011;38053;53.100;6.078;2023-11-22T00:29:45;23.38;;;11.98;;
52043;SDS011;38053;53.100;6.078;2023-11-22T00:32:14;15.80;;;11.20;;
52043;SDS011;38053;53.100;6.078;2023-11-22T00:34:39;19.50;;;12.45;;
52043;SDS011;38053;53.100;6.078;2023-11-22T00:37:05;16.60;;;11.82;;
52043;SDS011;38053;53.100;6.078;2023-11-22T00:39:31;16.63;;;11.68;;
52043;SDS011;38053;53.100;6.078;2023-11-22T00:41:57;20.15;;;11.93;;
52043;SDS011;38053;53.100;6.078;2023-11-22T00:44:22;17.10;;;11.48;;
52043;SDS011;38053;53.100;6.078;2023-11-22T00:46:48;20.17;;;12.32;;
52043;SDS011;38053;53.100;6.078;2023-11-22T00:49:14;19.25;;;11.88;;
52043;SDS011;38053;53.100;6.078;2023-11-22T00:51:39;16.95;;;11.65;;
52043;SDS011;38053;53.100;6.078;2023-11-22T00:54:05;24.98;;;12.52;;
52043;SDS011;38053;53.100;6.078;2023-11-22T00:56:31;17.52;;;12.50;;
52043;SDS011;38053;53.100;6.078;2023-11-22T00:58:57;22.42;;;12.98;;
52043;SDS011;38053;53.100;6.078;2023-11-22T01:01:25;22.17;;;12.55;;
52043;SDS011;38053;53.100;6.078;2023-11-22T01:03:51;18.60;;;12.57;;
52043;SDS011;38053;53.100;6.078;2023-11-22T01:06:16;20.40;;;13.20;;
52043;SDS011;38053;53.100;6.078;2023-11-22T01:08:45;20.88;;;13.48;;
52043;SDS011;38053;53.100;6.078;2023-11-22T01:11:13;22.10;;;13.13;;
52043;SDS011;38053;53.100;6.078;2023-11-22T01:13:38;22.70;;;13.05;;
52043;SDS011;38053;53.100;6.078;2023-11-22T01:16:08;22.58;;;13.02;;
52043;SDS011;38053;53.100;6.078;2023-11-22T01:18:35;18.95;;;12.23;;
52043;SDS011;38053;53.100;6.078;2023-11-22T01:21:01;18.75;;;12.10;;
52043;SDS011;38053;53.100;6.078;2023-11-22T01:23:29;18.58;;;12.13;;
52043;SDS011;38053;53.100;6.078;2023-11-22T01:25:55;18.30;;;11.93;;
52043;SDS011;38053;53.100;6.078;2023-11-22T01:28:21;17.52;;;12.25;;
52043;SDS011;38053;53.100;6.078;2023-11-22T01:30:47;20.10;;;12.60;;
52043;SDS011;38053;53.100;6.078;2023-11-22T01:33:14;20.55;;;13.15;;
52043;SDS011;38053;53.100;6.078;2023-11-22T01:35:40;19.65;;;12.73;;
52043;SDS011;38053;53.100;6.078;2023-11-22T01:38:06;18.02;;;11.93;;
52043;SDS011;38053;53.100;6.078;2023-11-22T01:40:33;20.17;;;12.13;;
52043;SDS011;38053;53.100;6.078;2023-11-22T01:42:59;17.77;;;11.00;;
52043;SDS011;38053;53.100;6.078;2023-11-22T01:45:25;19.50;;;11.52;;
52043;SDS011;38053;53.100;6.078;2023-11-22T01:47:51;18.45;;;11.30;;
52043;SDS011;38053;53.100;6.078;2023-11-22T01:50:19;22.85;;;12.13;;
52043;SDS011;38053;53.100;6.078;2023-11-22T01:52:45;20.08;;;11.77;;
52043;SDS011;38053;53.100;6.078;2023-11-22T01:55:11;20.05;;;12.52;;
52043;SDS011;38053;53.100;6.078;2023-11-22T01:57:38;20.85;;;11.93;;
52043;SDS011;38053;53.100;6.078;2023-11-22T02:00:04;21.98;;;12.68;;
52043;SDS011;38053;53.100;6.078;2023-11-22T02:02:35;19.92;;;13.02;;
52043;SDS011;38053;53.100;6.078;2023-11-22T02:05:01;22.98;;;12.23;;
52043;SDS011;38053;53.100;6.078;2023-11-22T02:07:27;19.17;;;11.90;;
52043;SDS011;38053;53.100;6.078;2023-11-22T02:09:53;19.58;;;12.85;;
52043;SDS011;38053;53.100;6.078;2023-11-22T02:12:19;19.05;;;11.30;;
52043;SDS011;38053;53.100;6.078;2023-11-22T02:14:45;23.05;;;13.32;;
52043;SDS011;38053;53.100;6.078;2023-11-22T02:17:11;19.50;;;11.85;;
52043;SDS011;38053;53.100;6.078;2023-11-22T02:19:37;20.67;;;13.10;;
52043;SDS011;38053;53.100;6.078;2023-11-22T02:22:03;19.52;;;11.68;;
52043;SDS011;38053;53.100;6.078;2023-11-22T02:24:29;18.80;;;11.70;;
52043;SDS011;38053;53.100;6.078;2023-11-22T02:26:54;18.35;;;12.05;;
52043;SDS011;38053;53.100;6.078;2023-11-22T02:29:20;20.17;;;11.75;;
52043;SDS011;38053;53.100;6.078;2023-11-22T02:31:47;17.98;;;11.82;;
52043;SDS011;38053;53.100;6.078;2023-11-22T02:34:15;19.80;;;12.40;;
52043;SDS011;38053;53.100;6.078;2023-11-22T02:36:44;19.45;;;11.98;;
52043;SDS011;38053;53.100;6.078;2023-11-22T02:39:10;17.75;;;11.52;;
52043;SDS011;38053;53.100;6.078;2023-11-22T02:41:35;18.38;;;12.40;;
52043;SDS011;38053;53.100;6.078;2023-11-22T02:44:01;19.73;;;12.98;;
52043;SDS011;38053;53.100;6.078;2023-11-22T02:46:27;22.75;;;12.13;;
52043;SDS011;38053;53.100;6.078;2023-11-22T02:48:56;23.17;;;13.52;;
52043;SDS011;38053;53.100;6.078;2023-11-22T02:51:21;21.58;;;12.63;;
52043;SDS011;38053;53.100;6.078;2023-11-22T02:53:47;19.92;;;12.48;;
52043;SDS011;38053;53.100;6.078;2023-11-22T02:56:15;22.23;;;12.38;;
52043;SDS011;38053;53.100;6.078;2023-11-22T02:58:41;22.42;;;13.55;;
52043;SDS011;38053;53.100;6.078;2023-11-22T03:01:06;20.15;;;11.80;;
52043;SDS011;38053;53.100;6.078;2023-11-22T03:03:33;22.58;;;12.45;;
52043;SDS011;38053;53.100;6.078;2023-11-22T03:05:59;21.00;;;12.55;;
52043;SDS011;38053;53.100;6.078;2023-11-22T03:08:25;24.42;;;13.43;;
52043;SDS011;38053;53.100;6.078;2023-11-22T03:10:52;20.73;;;12.38;;
52043;SDS011;38053;53.100;6.078;2023-11-22T03:13:18;23.00;;;12.23;;
52043;SDS011;38053;53.100;6.078;2023-11-22T03:15:44;27.15;;;12.50;;
52043;SDS011;38053;53.100;6.078;2023-11-22T03:18:10;24.35;;;13.32;;
52043;SDS011;38053;53.100;6.078;2023-11-22T03:20:36;23.85;;;12.20;;
52043;SDS011;38053;53.100;6.078;2023-11-22T03:23:03;25.15;;;14.25;;
52043;SDS011;38053;53.100;6.078;2023-11-22T03:25:29;21.85;;;13.45;;
52043;SDS011;38053;53.100;6.078;2023-11-22T03:27:55;23.58;;;12.65;;
52043;SDS011;38053;53.100;6.078;2023-11-22T03:30:21;22.27;;;12.43;;
52043;SDS011;38053;53.100;6.078;2023-11-22T03:32:47;21.23;;;12.93;;
52043;SDS011;38053;53.100;6.078;2023-11-22T03:35:14;24.63;;;14.07;;
52043;SDS011;38053;53.100;6.078;2023-11-22T03:37:42;22.95;;;13.68;;
52043;SDS011;38053;53.100;6.078;2023-11-22T03:40:08;22.05;;;13.38;;
52043;SDS011;38053;53.100;6.078;2023-11-22T03:42:37;19.25;;;11.32;;
52043;SDS011;38053;53.100;6.078;2023-11-22T03:45:04;27.35;;;12.70;;
52043;SDS011;38053;53.100;6.078;2023-11-22T03:47:31;25.55;;;12.90;;
52043;SDS011;38053;53.100;6.078;2023-11-22T03:49:58;25.17;;;13.23;;
52043;SDS011;38053;53.100;6.078;2023-11-22T03:52:24;25.58;;;13.35;;
52043;SDS011;38053;53.100;6.078;2023-11-22T03:54:52;24.42;;;12.63;;
52043;SDS011;38053;53.100;6.078;2023-11-22T03:57:18;19.60;;;12.63;;
52043;SDS011;38053;53.100;6.078;2023-11-22T03:59:43;25.58;;;13.07;;
52043;SDS011;38053;53.100;6.078;2023-11-22T04:02:09;19.48;;;12.27;;
52043;SDS011;38053;53.100;6.078;2023-11-22T04:04:36;22.65;;;12.18;;
52043;SDS011;38053;53.100;6.078;2023-11-22T04:07:04;23.25;;;11.60;;
52043;SDS011;38053;53.100;6.078;2023-11-22T04:09:31;24.08;;;13.10;;
52043;SDS011;38053;53.100;6.078;2023-11-22T04:11:56;22.00;;;12.73;;
52043;SDS011;38053;53.100;6.078;2023-11-22T04:14:23;31.98;;;14.75;;
52043;SDS011;38053;53.100;6.078;2023-11-22T04:16:48;26.65;;;14.02;;
52043;SDS011;38053;53.100;6.078;2023-11-22T04:19:14;23.75;;;13.20;;
52043;SDS011;38053;53.100;6.078;2023-11-22T04:21:40;26.60;;;14.48;;
52043;SDS011;38053;53.100;6.078;2023-11-22T04:24:06;24.48;;;14.60;;
52043;SDS011;38053;53.100;6.078;2023-11-22T04:26:32;22.40;;;12.57;;
52043;SDS011;38053;53.100;6.078;2023-11-22T04:28:57;28.35;;;14.23;;
52043;SDS011;38053;53.100;6.078;2023-11-22T04:31:24;26.40;;;14.70;;
52043;SDS011;38053;53.100;6.078;2023-11-22T04:33:49;32.08;;;14.63;;
52043;SDS011;38053;53.100;6.078;2023-11-22T04:36:15;27.58;;;15.65;;
52043;SDS011;38053;53.100;6.078;2023-11-22T04:38:41;26.08;;;14.73;;
52043;SDS011;38053;53.100;6.078;2023-11-22T04:41:07;32.33;;;16.27;;
52043;SDS011;38053;53.100;6.078;2023-11-22T04:43:33;30.75;;;16.02;;
52043;SDS011;38053;53.100;6.078;2023-11-22T04:45:59;23.42;;;14.57;;
52043;SDS011;38053;53.100;6.078;2023-11-22T04:48:25;28.42;;;14.00;;
52043;SDS011;38053;53.100;6.078;2023-11-22T04:50:50;32.55;;;15.27;;
52043;SDS011;38053;53.100;6.078;2023-11-22T04:53:16;24.27;;;13.65;;
52043;SDS011;38053;53.100;6.078;2023-11-22T04:55:44;27.15;;;14.43;;
52043;SDS011;38053;53.100;6.078;2023-11-22T04:58:09;41.08;;;18.02;;
52043;SDS011;38053;53.100;6.078;2023-11-22T05:00:35;29.42;;;15.68;;
52043;SDS011;38053;53.100;6.078;2023-11-22T05:03:01;27.55;;;15.70;;
52043;SDS011;38053;53.100;6.078;2023-11-22T05:05:27;27.15;;;14.75;;
52043;SDS011;38053;53.100;6.078;2023-11-22T05:07:52;37.13;;;17.90;;
52043;SDS011;38053;53.100;6.078;2023-11-22T05:10:18;32.78;;;16.20;;
52043;SDS011;38053;53.100;6.078;2023-11-22T05:12:44;26.10;;;14.07;;
52043;SDS011;38053;53.100;6.078;2023-11-22T05:15:09;28.70;;;16.38;;
52043;SDS011;38053;53.100;6.078;2023-11-22T05:17:35;35.53;;;16.33;;
52043;SDS011;38053;53.100;6.078;2023-11-22T05:20:01;28.63;;;16.00;;
52043;SDS011;38053;53.100;6.078;2023-11-22T05:22:27;28.27;;;16.20;;
52043;SDS011;38053;53.100;6.078;2023-11-22T05:24:53;32.33;;;16.85;;
52043;SDS011;38053;53.100;6.078;2023-11-22T05:27:18;30.15;;;16.77;;
52043;SDS011;38053;53.100;6.078;2023-11-22T05:29:44;29.15;;;16.55;;
52043;SDS011;38053;53.100;6.078;2023-11-22T05:32:10;30.63;;;17.42;;
52043;SDS011;38053;53.100;6.078;2023-11-22T05:34:36;36.60;;;18.58;;
52043;SDS011;38053;53.100;6.078;2023-11-22T05:37:02;33.70;;;17.13;;
52043;SDS011;38053;53.100;6.078;2023-11-22T05:39:28;38.58;;;19.35;;
52043;SDS011;38053;53.100;6.078;2023-11-22T05:41:54;36.47;;;17.48;;
52043;SDS011;38053;53.100;6.078;2023-11-22T05:44:21;34.03;;;17.52;;
52043;SDS011;38053;53.100;6.078;2023-11-22T05:46:47;32.45;;;17.88;;
52043;SDS011;38053;53.100;6.078;2023-11-22T05:49:13;36.13;;;18.38;;
52043;SDS011;38053;53.100;6.078;2023-11-22T05:51:38;29.88;;;17.00;;
52043;SDS011;38053;53.100;6.078;2023-11-22T05:54:04;35.63;;;17.73;;
52043;SDS011;38053;53.100;6.078;2023-11-22T05:56:30;31.65;;;17.30;;
52043;SDS011;38053;53.100;6.078;2023-11-22T05:58:56;41.35;;;21.33;;
52043;SDS011;38053;53.100;6.078;2023-11-22T06:01:22;31.55;;;18.15;;
52043;SDS011;38053;53.100;6.078;2023-11-22T06:03:48;33.05;;;17.92;;
52043;SDS011;38053;53.100;6.078;2023-11-22T06:06:14;38.08;;;20.10;;
52043;SDS011;38053;53.100;6.078;2023-11-22T06:08:40;34.60;;;18.27;;
52043;SDS011;38053;53.100;6.078;2023-11-22T06:11:05;35.03;;;17.30;;
52043;SDS011;38053;53.100;6.078;2023-11-22T06:13:32;33.10;;;17.42;;
52043;SDS011;38053;53.100;6.078;2023-11-22T06:15:58;36.30;;;19.00;;
52043;SDS011;38053;53.100;6.078;2023-11-22T06:18:24;27.15;;;17.45;;
52043;SDS011;38053;53.100;6.078;2023-11-22T06:23:21;40.33;;;19.02;;
52043;SDS011;38053;53.100;6.078;2023-11-22T06:25:47;36.13;;;17.30;;
52043;SDS011;38053;53.100;6.078;2023-11-22T06:28:12;30.38;;;16.30;;
52043;SDS011;38053;53.100;6.078;2023-11-22T06:30:38;31.45;;;17.75;;
52043;SDS011;38053;53.100;6.078;2023-11-22T06:33:04;32.90;;;17.83;;
52043;SDS011;38053;53.100;6.078;2023-11-22T06:35:30;31.42;;;16.50;;
52043;SDS011;38053;53.100;6.078;2023-11-22T06:37:55;37.15;;;18.63;;
52043;SDS011;38053;53.100;6.078;2023-11-22T06:40:21;36.72;;;17.00;;
52043;SDS011;38053;53.100;6.078;2023-11-22T06:42:47;32.92;;;17.98;;
52043;SDS011;38053;53.100;6.078;2023-11-22T06:45:13;31.70;;;17.83;;
52043;SDS011;38053;53.100;6.078;2023-11-22T06:47:40;32.83;;;18.10;;
52043;SDS011;38053;53.100;6.078;2023-11-22T06:50:09;37.38;;;17.48;;
52043;SDS011;38053;53.100;6.078;2023-11-22T06:52:36;29.25;;;17.45;;
52043;SDS011;38053;53.100;6.078;2023-11-22T06:55:03;32.85;;;18.83;;
52043;SDS011;38053;53.100;6.078;2023-11-22T06:57:29;33.33;;;17.48;;
52043;SDS011;38053;53.100;6.078;2023-11-22T06:59:56;33.40;;;19.25;;
52043;SDS011;38053;53.100;6.078;2023-11-22T07:02:22;35.88;;;17.38;;
52043;SDS011;38053;53.100;6.078;2023-11-22T07:04:48;31.50;;;18.17;;
52043;SDS011;38053;53.100;6.078;2023-11-22T07:07:14;32.55;;;19.55;;
52043;SDS011;38053;53.100;6.078;2023-11-22T07:09:43;35.78;;;16.30;;
52043;SDS011;38053;53.100;6.078;2023-11-22T07:12:09;33.22;;;18.90;;
52043;SDS011;38053;53.100;6.078;2023-11-22T07:14:35;34.03;;;18.75;;
52043;SDS011;38053;53.100;6.078;2023-11-22T07:17:02;34.15;;;18.25;;
52043;SDS011;38053;53.100;6.078;2023-11-22T07:19:28;33.65;;;18.50;;
52043;SDS011;38053;53.100;6.078;2023-11-22T07:21:54;38.67;;;18.90;;
52043;SDS011;38053;53.100;6.078;2023-11-22T07:24:20;36.78;;;19.45;;
52043;SDS011;38053;53.100;6.078;2023-11-22T07:26:46;35.38;;;18.30;;
52043;SDS011;38053;53.100;6.078;2023-11-22T07:29:12;35.53;;;18.42;;
52043;SDS011;38053;53.100;6.078;2023-11-22T07:31:38;29.55;;;17.83;;
52043;SDS011;38053;53.100;6.078;2023-11-22T07:34:04;34.67;;;18.17;;
52043;SDS011;38053;53.100;6.078;2023-11-22T07:36:31;38.63;;;21.08;;
52043;SDS011;38053;53.100;6.078;2023-11-22T07:38:57;37.38;;;19.33;;
52043;SDS011;38053;53.100;6.078;2023-11-22T07:41:23;36.45;;;20.60;;
52043;SDS011;38053;53.100;6.078;2023-11-22T07:43:49;32.47;;;18.85;;
52043;SDS011;38053;53.100;6.078;2023-11-22T07:46:14;35.75;;;20.38;;
52043;SDS011;38053;53.100;6.078;2023-11-22T07:48:42;37.65;;;18.80;;
52043;SDS011;38053;53.100;6.078;2023-11-22T07:51:08;35.47;;;20.27;;
52043;SDS011;38053;53.100;6.078;2023-11-22T07:53:34;35.97;;;19.70;;
52043;SDS011;38053;53.100;6.078;2023-11-22T07:56:03;31.92;;;19.17;;
52043;SDS011;38053;53.100;6.078;2023-11-22T07:58:32;31.23;;;18.35;;
52043;SDS011;38053;53.100;6.078;2023-11-22T08:00:59;30.23;;;18.00;;
52043;SDS011;38053;53.100;6.078;2023-11-22T08:03:25;35.72;;;18.88;;
52043;SDS011;38053;53.100;6.078;2023-11-22T08:05:53;37.25;;;19.75;;
52043;SDS011;38053;53.100;6.078;2023-11-22T08:08:21;34.40;;;20.35;;
52043;SDS011;38053;53.100;6.078;2023-11-22T08:10:48;40.40;;;19.13;;
52043;SDS011;38053;53.100;6.078;2023-11-22T08:13:16;38.25;;;19.30;;
52043;SDS011;38053;53.100;6.078;2023-11-22T08:15:44;32.22;;;18.63;;
52043;SDS011;38053;53.100;6.078;2023-11-22T08:18:11;35.30;;;19.20;;
52043;SDS011;38053;53.100;6.078;2023-11-22T08:20:38;33.75;;;20.17;;
52043;SDS011;38053;53.100;6.078;2023-11-22T08:23:03;32.10;;;18.88;;
52043;SDS011;38053;53.100;6.078;2023-11-22T08:25:31;34.00;;;19.15;;
52043;SDS011;38053;53.100;6.078;2023-11-22T08:27:57;31.67;;;17.63;;
52043;SDS011;38053;53.100;6.078;2023-11-22T08:30:23;31.67;;;18.10;;
52043;SDS011;38053;53.100;6.078;2023-11-22T08:32:48;30.38;;;19.10;;
52043;SDS011;38053;53.100;6.078;2023-11-22T08:35:19;30.80;;;17.97;;
52043;SDS011;38053;53.100;6.078;2023-11-22T08:37:48;39.42;;;18.90;;
52043;SDS011;38053;53.100;6.078;2023-11-22T08:40:15;33.30;;;18.27;;
52043;SDS011;38053;53.100;6.078;2023-11-22T08:42:48;34.33;;;19.47;;
52043;SDS011;38053;53.100;6.078;2023-11-22T08:45:15;33.75;;;18.23;;
52043;SDS011;38053;53.100;6.078;2023-11-22T08:47:41;31.13;;;19.55;;
52043;SDS011;38053;53.100;6.078;2023-11-22T08:50:07;30.83;;;18.15;;
52043;SDS011;38053;53.100;6.078;2023-11-22T08:52:36;34.30;;;18.65;;
52043;SDS011;38053;53.100;6.078;2023-11-22T08:57:36;37.50;;;17.65;;
52043;SDS011;38053;53.100;6.078;2023-11-22T09:00:02;28.65;;;16.77;;
52043;SDS011;38053;53.100;6.078;2023-11-22T09:02:32;27.42;;;16.90;;
52043;SDS011;38053;53.100;6.078;2023-11-22T09:05:00;36.05;;;20.58;;
52043;SDS011;38053;53.100;6.078;2023-11-22T09:07:30;35.53;;;18.63;;
52043;SDS011;38053;53.100;6.078;2023-11-22T09:09:56;31.50;;;18.15;;
52043;SDS011;38053;53.100;6.078;2023-11-22T09:12:23;30.85;;;18.50;;
52043;SDS011;38053;53.100;6.078;2023-11-22T09:14:49;32.70;;;19.05;;
52043;SDS011;38053;53.100;6.078;2023-11-22T09:17:14;33.45;;;19.67;;
52043;SDS011;38053;53.100;6.078;2023-11-22T09:19:40;35.25;;;19.20;;
52043;SDS011;38053;53.100;6.078;2023-11-22T09:22:06;37.10;;;18.02;;
52043;SDS011;38053;53.100;6.078;2023-11-22T09:24:32;35.40;;;18.35;;
52043;SDS011;38053;53.100;6.078;2023-11-22T09:26:58;30.52;;;18.33;;
52043;SDS011;38053;53.100;6.078;2023-11-22T09:29:25;26.17;;;17.65;;
52043;SDS011;38053;53.100;6.078;2023-11-22T09:31:51;29.95;;;18.50;;
52043;SDS011;38053;53.100;6.078;2023-11-22T09:34:17;32.50;;;19.02;;
52043;SDS011;38053;53.100;6.078;2023-11-22T09:36:43;29.58;;;17.77;;
52043;SDS011;38053;53.100;6.078;2023-11-22T09:39:09;37.15;;;18.90;;
52043;SDS011;38053;53.100;6.078;2023-11-22T09:41:35;29.58;;;16.55;;
52043;SDS011;38053;53.100;6.078;2023-11-22T09:44:01;29.42;;;18.85;;
52043;SDS011;38053;53.100;6.078;2023-11-22T09:46:27;32.50;;;19.15;;
52043;SDS011;38053;53.100;6.078;2023-11-22T09:48:55;29.70;;;17.02;;
52043;SDS011;38053;53.100;6.078;2023-11-22T09:54:03;31.33;;;18.63;;
52043;SDS011;38053;53.100;6.078;2023-11-22T09:56:32;29.73;;;17.17;;
52043;SDS011;38053;53.100;6.078;2023-11-22T09:59:01;29.58;;;17.88;;
52043;SDS011;38053;53.100;6.078;2023-11-22T10:01:29;33.03;;;18.88;;
52043;SDS011;38053;53.100;6.078;2023-11-22T10:04:04;27.75;;;17.90;;
52043;SDS011;38053;53.100;6.078;2023-11-22T10:06:33;26.58;;;16.02;;
52043;SDS011;38053;53.100;6.078;2023-11-22T10:09:03;26.73;;;16.90;;
52043;SDS011;38053;53.100;6.078;2023-11-22T10:11:36;27.17;;;16.30;;
52043;SDS011;38053;53.100;6.078;2023-11-22T10:14:08;26.95;;;16.60;;
52043;SDS011;38053;53.100;6.078;2023-11-22T10:16:34;27.10;;;16.80;;
52043;SDS011;38053;53.100;6.078;2023-11-22T10:19:00;27.33;;;16.42;;
52043;SDS011;38053;53.100;6.078;2023-11-22T10:21:27;25.55;;;15.30;;
52043;SDS011;38053;53.100;6.078;2023-11-22T10:23:56;25.92;;;16.48;;
52043;SDS011;38053;53.100;6.078;2023-11-22T10:26:22;24.70;;;14.80;;
52043;SDS011;38053;53.100;6.078;2023-11-22T10:28:52;25.63;;;15.82;;
52043;SDS011;38053;53.100;6.078;2023-11-22T10:31:19;26.60;;;16.35;;
52043;SDS011;38053;53.100;6.078;2023-11-22T10:33:46;25.55;;;14.73;;
52043;SDS011;38053;53.100;6.078;2023-11-22T10:36:13;25.45;;;16.45;;
52043;SDS011;38053;53.100;6.078;2023-11-22T10:38:40;25.42;;;16.05;;
52043;SDS011;38053;53.100;6.078;2023-11-22T10:41:11;25.60;;;15.73;;
52043;SDS011;38053;53.100;6.078;2023-11-22T10:43:39;23.67;;;15.45;;
52043;SDS011;38053;53.100;6.078;2023-11-22T10:46:07;22.15;;;14.07;;
52043;SDS011;38053;53.100;6.078;2023-11-22T10:48:38;24.73;;;16.75;;
52043;SDS011;38053;53.100;6.078;2023-11-22T10:51:04;25.23;;;16.75;;
52043;SDS011;38053;53.100;6.078;2023-11-22T10:53:32;25.88;;;16.77;;
52043;SDS011;38053;53.100;6.078;2023-11-22T10:56:11;25.40;;;16.60;;
52043;SDS011;38053;53.100;6.078;2023-11-22T10:58:49;24.23;;;15.52;;
52043;SDS011;38053;53.100;6.078;2023-11-22T11:01:17;23.60;;;14.80;;
52043;SDS011;38053;53.100;6.078;2023-11-22T11:04:18;23.35;;;14.02;;
52043;SDS011;38053;53.100;6.078;2023-11-22T11:06:43;26.90;;;14.73;;
52043;SDS011;38053;53.100;6.078;2023-11-22T11:09:11;22.80;;;15.93;;
52043;SDS011;38053;53.100;6.078;2023-11-22T11:11:40;24.50;;;15.90;;
52043;SDS011;38053;53.100;6.078;2023-11-22T11:14:07;21.45;;;14.57;;
52043;SDS011;38053;53.100;6.078;2023-11-22T11:16:37;24.80;;;15.48;;
52043;SDS011;38053;53.100;6.078;2023-11-22T11:19:06;23.35;;;14.52;;
52043;SDS011;38053;53.100;6.078;2023-11-22T11:21:35;18.80;;;12.68;;
52043;SDS011;38053;53.100;6.078;2023-11-22T11:24:01;20.27;;;14.07;;
52043;SDS011;38053;53.100;6.078;2023-11-22T11:26:31;19.73;;;12.80;;
52043;SDS011;38053;53.100;6.078;2023-11-22T11:28:59;23.27;;;14.20;;
52043;SDS011;38053;53.100;6.078;2023-11-22T11:31:28;21.65;;;14.23;;
52043;SDS011;38053;53.100;6.078;2023-11-22T11:33:57;25.27;;;15.07;;
52043;SDS011;38053;53.100;6.078;2023-11-22T11:38:54;18.55;;;13.20;;
52043;SDS011;38053;53.100;6.078;2023-11-22T11:41:25;23.17;;;15.45;;
52043;SDS011;38053;53.100;6.078;2023-11-22T11:44:03;20.23;;;12.88;;
52043;SDS011;38053;53.100;6.078;2023-11-22T11:46:32;22.05;;;13.90;;
52043;SDS011;38053;53.100;6.078;2023-11-22T11:48:58;18.50;;;13.40;;
52043;SDS011;38053;53.100;6.078;2023-11-22T11:51:25;18.83;;;13.13;;
52043;SDS011;38053;53.100;6.078;2023-11-22T11:53:52;18.92;;;13.30;;
52043;SDS011;38053;53.100;6.078;2023-11-22T11:56:19;20.50;;;13.88;;
52043;SDS011;38053;53.100;6.078;2023-11-22T11:58:46;22.92;;;13.98;;
52043;SDS011;38053;53.100;6.078;2023-11-22T12:01:16;20.15;;;13.68;;
52043;SDS011;38053;53.100;6.078;2023-11-22T12:03:45;18.05;;;12.13;;
52043;SDS011;38053;53.100;6.078;2023-11-22T12:06:15;21.05;;;13.07;;
52043;SDS011;38053;53.100;6.078;2023-11-22T12:08:41;21.70;;;12.93;;
52043;SDS011;38053;53.100;6.078;2023-11-22T12:11:07;18.65;;;12.80;;
52043;SDS011;38053;53.100;6.078;2023-11-22T12:13:35;19.25;;;11.60;;
52043;SDS011;38053;53.100;6.078;2023-11-22T12:16:08;19.48;;;12.35;;
52043;SDS011;38053;53.100;6.078;2023-11-22T12:18:48;17.80;;;13.02;;
52043;SDS011;38053;53.100;6.078;2023-11-22T12:21:15;20.20;;;12.25;;
52043;SDS011;38053;53.100;6.078;2023-11-22T12:23:43;19.63;;;12.93;;
52043;SDS011;38053;53.100;6.078;2023-11-22T12:26:13;20.85;;;13.02;;
52043;SDS011;38053;53.100;6.078;2023-11-22T12:28:40;23.38;;;13.60;;
52043;SDS011;38053;53.100;6.078;2023-11-22T12:31:10;16.80;;;12.20;;
52043;SDS011;38053;53.100;6.078;2023-11-22T12:33:38;19.88;;;13.05;;
52043;SDS011;38053;53.100;6.078;2023-11-22T12:36:06;20.13;;;13.00;;
52043;SDS011;38053;53.100;6.078;2023-11-22T12:38:34;21.30;;;14.25;;
52043;SDS011;38053;53.100;6.078;2023-11-22T12:41:00;18.67;;;13.63;;
52043;SDS011;38053;53.100;6.078;2023-11-22T12:43:28;20.17;;;14.63;;
52043;SDS011;38053;53.100;6.078;2023-11-22T12:46:14;24.88;;;14.32;;
52043;SDS011;38053;53.100;6.078;2023-11-22T12:48:41;18.75;;;12.85;;
52043;SDS011;38053;53.100;6.078;2023-11-22T12:51:16;21.63;;;13.88;;
52043;SDS011;38053;53.100;6.078;2023-11-22T12:53:47;21.77;;;14.55;;
52043;SDS011;38053;53.100;6.078;2023-11-22T12:56:13;21.13;;;13.05;;
52043;SDS011;38053;53.100;6.078;2023-11-22T12:58:39;20.88;;;13.45;;
52043;SDS011;38053;53.100;6.078;2023-11-22T13:01:05;18.27;;;12.52;;
52043;SDS011;38053;53.100;6.078;2023-11-22T13:03:30;19.80;;;13.15;;
52043;SDS011;38053;53.100;6.078;2023-11-22T13:05:57;17.95;;;13.10;;
52043;SDS011;38053;53.100;6.078;2023-11-22T13:08:23;23.50;;;14.45;;
52043;SDS011;38053;53.100;6.078;2023-11-22T13:13:20;23.90;;;15.38;;
52043;SDS011;38053;53.100;6.078;2023-11-22T13:15:46;26.10;;;16.30;;
52043;SDS011;38053;53.100;6.078;2023-11-22T13:18:12;21.95;;;14.85;;
52043;SDS011;38053;53.100;6.078;2023-11-22T13:20:38;24.45;;;15.85;;
52043;SDS011;38053;53.100;6.078;2023-11-22T13:23:06;21.35;;;14.48;;
52043;SDS011;38053;53.100;6.078;2023-11-22T13:25:32;22.98;;;15.25;;
52043;SDS011;38053;53.100;6.078;2023-11-22T13:27:58;24.38;;;14.07;;
52043;SDS011;38053;53.100;6.078;2023-11-22T13:30:24;21.15;;;13.75;;
52043;SDS011;38053;53.100;6.078;2023-11-22T13:32:54;21.92;;;15.13;;
52043;SDS011;38053;53.100;6.078;2023-11-22T13:35:24;23.90;;;14.25;;
52043;SDS011;38053;53.100;6.078;2023-11-22T13:37:52;22.45;;;13.70;;
52043;SDS011;38053;53.100;6.078;2023-11-22T13:40:19;17.88;;;12.82;;
52043;SDS011;38053;53.100;6.078;2023-11-22T13:42:50;18.48;;;13.35;;
52043;SDS011;38053;53.100;6.078;2023-11-22T13:45:18;23.35;;;15.00;;
52043;SDS011;38053;53.100;6.078;2023-11-22T13:47:44;22.27;;;14.55;;
52043;SDS011;38053;53.100;6.078;2023-11-22T13:50:16;21.80;;;13.65;;
52043;SDS011;38053;53.100;6.078;2023-11-22T13:52:50;22.73;;;13.20;;
52043;SDS011;38053;53.100;6.078;2023-11-22T13:55:17;20.00;;;13.13;;
52043;SDS011;38053;53.100;6.078;2023-11-22T13:57:47;20.13;;;13.60;;
52043;SDS011;38053;53.100;6.078;2023-11-22T14:00:17;24.08;;;16.00;;
52043;SDS011;38053;53.100;6.078;2023-11-22T14:02:54;19.77;;;13.73;;
52043;SDS011;38053;53.100;6.078;2023-11-22T14:05:30;22.02;;;14.98;;
52043;SDS011;38053;53.100;6.078;2023-11-22T14:07:56;22.67;;;13.70;;
52043;SDS011;38053;53.100;6.078;2023-11-22T14:10:22;21.75;;;14.13;;
52043;SDS011;38053;53.100;6.078;2023-11-22T14:12:48;25.48;;;14.40;;
52043;SDS011;38053;53.100;6.078;2023-11-22T14:15:14;21.98;;;14.27;;
52043;SDS011;38053;53.100;6.078;2023-11-22T14:17:41;19.92;;;14.45;;
52043;SDS011;38053;53.100;6.078;2023-11-22T14:20:10;23.92;;;15.60;;
52043;SDS011;38053;53.100;6.078;2023-11-22T14:22:37;21.50;;;14.30;;
52043;SDS011;38053;53.100;6.078;2023-11-22T14:25:05;19.17;;;13.73;;
52043;SDS011;38053;53.100;6.078;2023-11-22T14:27:40;21.67;;;13.65;;
52043;SDS011;38053;53.100;6.078;2023-11-22T14:30:07;20.08;;;13.55;;
52043;SDS011;38053;53.100;6.078;2023-11-22T14:32:35;21.20;;;14.25;;